createdAt,value
2024-02-14T00:01:16.423Z,22.3
2024-02-14T00:06:55.789Z,22.1
2024-02-14T00:12:19.390Z,24.9
2024-02-14T00:17:27.102Z,27.3
2024-02-14T00:22:51.249Z,24.8
2024-02-14T00:28:30.388Z,23.7
2024-02-14T00:33:56.211Z,23.1
2024-02-14T00:39:36.144Z,22.8
2024-02-14T00:44:43.794Z,22.6
2024-02-14T00:50:25.525Z,22.4
2024-02-14T00:56:04.211Z,22.3
2024-02-14T01:01:43.616Z,22.2
2024-02-14T01:07:23.310Z,22
2024-02-14T01:13:02.844Z,22.4
2024-02-14T01:18:26.724Z,26.1
2024-02-14T08:11:38.418Z,22
2024-02-14T08:17:03.638Z,21.8
2024-02-14T08:22:35.189Z,21.6
2024-02-14T08:28:14.447Z,21.4
2024-02-14T08:33:54.574Z,21.2
2024-02-14T08:39:41.011Z,23.6
2024-02-14T08:45:21.219Z,26.3
2024-02-14T08:51:05.896Z,24.3
2024-02-14T08:56:49.495Z,23.2
2024-02-14T09:02:44.410Z,22.4
2024-02-14T09:08:24.649Z,22.1
2024-02-14T09:14:03.827Z,21.8
2024-02-14T09:19:44.377Z,21.6
2024-02-14T09:25:24.890Z,21.4
2024-02-14T09:31:17.660Z,24.1
2024-02-14T09:36:44.092Z,26.4
2024-02-14T09:42:23.438Z,24.1
2024-02-14T09:48:07.184Z,23.1
2024-02-14T09:53:47.565Z,22.3
2024-02-14T09:59:27.736Z,22
2024-02-14T10:05:07.650Z,21.8
2024-02-14T10:10:59.816Z,21.7
2024-02-14T10:16:25.959Z,21.4
2024-02-14T10:22:07.212Z,23.4
2024-02-14T10:27:46.684Z,25.9
2024-02-14T10:33:45.187Z,24.6
2024-02-14T10:39:25.565Z,23.3
2024-02-14T10:45:07.777Z,22.3
2024-02-14T10:50:48.129Z,22.1
2024-02-14T10:56:26.887Z,21.9
2024-02-14T11:02:06.032Z,21.7
2024-02-14T11:07:32.037Z,21.5
2024-02-14T11:13:12.676Z,21.6
2024-02-14T11:18:52.493Z,25.2
2024-02-14T11:24:34.469Z,25.4
2024-02-14T11:30:28.193Z,23.6
2024-02-14T11:36:09.390Z,22.5
2024-02-14T11:41:48.936Z,22.1
2024-02-14T11:47:30.035Z,21.9
2024-02-14T11:53:12.734Z,22.4
2024-02-14T11:58:52.121Z,25.8
2024-02-14T12:04:32.682Z,24.9
2024-02-14T12:10:13.561Z,23.5
2024-02-14T12:15:53.268Z,22.6
2024-02-14T12:21:33.420Z,22.1
2024-02-14T12:27:12.847Z,21.9
2024-02-14T12:32:56.856Z,21.8
2024-02-14T12:38:39.603Z,25.1
2024-02-14T12:44:18.704Z,26.3
2024-02-14T12:49:58.613Z,23.9
2024-02-14T12:55:37.199Z,23.1
2024-02-14T13:01:16.830Z,22.8
2024-02-14T13:06:56.859Z,22.4
2024-02-14T13:12:36.415Z,22
2024-02-14T13:18:16.445Z,23.3
2024-02-14T13:23:56.843Z,26.3
2024-02-14T13:29:19.481Z,24.8
2024-02-14T13:35:00.446Z,23.7
2024-02-14T13:40:39.103Z,23.3
2024-02-14T13:46:20.689Z,22.9
2024-02-14T13:52:03.025Z,22.5
2024-02-14T13:57:42.759Z,22.2
2024-02-14T14:03:20.786Z,25.2
2024-02-14T14:09:16.939Z,26.8
2024-02-14T14:14:55.478Z,24.2
2024-02-14T14:20:39.883Z,23.4
2024-02-14T14:26:21.067Z,23
2024-02-14T14:32:04.381Z,22.6
2024-02-14T14:37:47.360Z,22.4
2024-02-14T14:43:29.774Z,22.1
2024-02-14T14:48:56.580Z,21.8
2024-02-14T14:54:39.884Z,21.5
2024-02-14T15:00:22.085Z,21.3
2024-02-14T15:11:27.776Z,20.9
2024-02-14T15:17:08.954Z,20.6
2024-02-14T15:22:52.525Z,20.5
2024-02-14T15:28:31.563Z,26
2024-02-14T15:34:11.517Z,29.7
2024-02-14T15:39:51.449Z,33
2024-02-14T15:45:29.724Z,34.8
2024-02-14T15:50:39.093Z,37.1
2024-02-14T15:56:18.357Z,38.9
2024-02-14T16:01:57.495Z,39.7
2024-02-14T16:07:37.226Z,39.3
2024-02-14T16:13:15.713Z,38.3
2024-02-14T16:18:56.086Z,36.9
2024-02-14T16:24:51.573Z,35.7
2024-02-14T16:30:30.333Z,34.6
2024-02-14T16:36:10.619Z,34.4
2024-02-14T16:42:04.606Z,35.3
2024-02-14T16:47:46.640Z,33.3
2024-02-14T16:53:29.606Z,37.1
2024-02-14T16:59:12.349Z,35.9
2024-02-14T17:04:48.317Z,36.5
2024-02-14T17:10:30.722Z,37.8
2024-02-14T17:15:57.918Z,35.9
2024-02-14T17:21:38.883Z,34.8
2024-02-14T17:27:26.512Z,34.9
2024-02-14T17:33:18.520Z,37.6
2024-02-14T17:38:59.169Z,36.8
2024-02-14T17:44:21.798Z,35.4
2024-02-14T17:50:01.674Z,34.6
2024-02-14T17:55:40.840Z,35.4
2024-02-14T18:01:19.779Z,35.7
2024-02-14T18:06:46.222Z,34.8
2024-02-14T18:12:27.944Z,33.9
2024-02-14T18:17:50.533Z,37.3
2024-02-14T18:23:29.917Z,35.7
2024-02-14T18:29:10.458Z,36.7
2024-02-14T18:34:37.354Z,38.5
2024-02-14T18:40:16.774Z,35.5
2024-02-14T18:45:55.109Z,38.4
2024-02-14T18:51:34.705Z,35.1
2024-02-14T18:57:13.357Z,35.9
2024-02-14T19:02:52.206Z,40.1
2024-02-14T19:08:33.583Z,37.7
2024-02-14T19:14:12.138Z,36
2024-02-14T19:20:05.424Z,37.8
2024-02-14T19:25:44.347Z,39.6
2024-02-14T19:31:23.571Z,37.1
